createdAt,value
2018-11-10T00:01:25.465Z,56.13
2018-11-10T00:03:59.890Z,53.27
2018-11-10T00:06:33.308Z,55.47
2018-11-10T00:09:04.503Z,52.27
2018-11-10T00:11:50.091Z,57.73
2018-11-10T00:17:06.809Z,57.80
2018-11-10T00:19:42.929Z,52.47
2018-11-10T00:22:18.270Z,56.07
2018-11-10T00:24:49.700Z,55.73
2018-11-10T00:27:34.905Z,54.07
2018-11-10T00:30:09.769Z,51.30
2018-11-10T00:32:43.067Z,55.60
2018-11-10T00:35:13.310Z,50.73
2018-11-10T00:37:48.105Z,59.83
2018-11-10T00:43:04.437Z,62.47
2018-11-10T00:45:52.037Z,57.30
2018-11-10T00:48:22.674Z,48.73
2018-11-10T00:50:54.511Z,48.80
2018-11-10T00:53:25.402Z,52.70
2018-11-10T00:55:58.981Z,79.17
2018-11-10T00:58:28.884Z,56.50
2018-11-10T01:00:59.422Z,58.30
2018-11-10T01:03:30.637Z,54.90
2018-11-10T01:06:00.276Z,48.53
2018-11-10T01:08:37.565Z,51.57
2018-11-10T01:11:07.339Z,54.97
2018-11-10T01:13:38.179Z,53.47
2018-11-10T01:16:08.074Z,48.40
2018-11-10T01:18:37.864Z,47.67
2018-11-10T01:21:08.291Z,49.70
2018-11-10T01:23:49.751Z,50.40
2018-11-10T01:26:23.861Z,50.70
2018-11-10T01:29:01.147Z,49.70
2018-11-10T01:31:32.755Z,52.33
2018-11-10T01:34:29.521Z,47.97
2018-11-10T01:37:02.299Z,43.93
2018-11-10T01:39:33.779Z,47.33
2018-11-10T01:42:08.979Z,51.17
2018-11-10T01:44:39.398Z,50.73
2018-11-10T01:47:20.317Z,53.43
2018-11-10T01:49:59.225Z,49.00
2018-11-10T01:55:43.612Z,46.07
2018-11-10T01:58:15.085Z,53.70
2018-11-10T02:00:44.858Z,44.07
2018-11-10T02:16:34.884Z,47.23
2018-11-10T02:19:08.752Z,71.13
2018-11-10T02:21:42.146Z,50.07
2018-11-10T02:24:12.614Z,47.67
2018-11-10T02:26:43.229Z,52.77
2018-11-10T02:29:15.768Z,50.47
2018-11-10T02:31:49.582Z,47.87
2018-11-10T02:34:20.338Z,54.53
2018-11-10T02:36:50.141Z,52.83
2018-11-10T02:39:19.799Z,44.83
2018-11-10T02:41:50.946Z,48.10
2018-11-10T02:44:21.108Z,44.23
2018-11-10T02:46:52.749Z,46.13
2018-11-10T02:49:25.501Z,45.07
2018-11-10T02:51:56.299Z,40.53
2018-11-10T02:54:27.130Z,45.97
2018-11-10T02:57:10.706Z,44.00
2018-11-10T03:00:08.366Z,49.30
2018-11-10T03:02:37.977Z,42.70
2018-11-10T03:05:09.996Z,48.67
2018-11-10T03:07:41.996Z,42.77
2018-11-10T03:10:26.451Z,49.60
2018-11-10T03:12:59.402Z,45.60
2018-11-10T03:15:28.934Z,49.10
2018-11-10T03:17:58.537Z,53.17
2018-11-10T03:20:28.132Z,42.13
2018-11-10T03:23:11.652Z,48.70
2018-11-10T03:25:46.589Z,45.83
2018-11-10T03:28:30.027Z,43.87
2018-11-10T03:31:04.000Z,46.50
2018-11-10T03:33:36.010Z,44.37
2018-11-10T03:36:08.690Z,44.27
2018-11-10T03:38:44.362Z,45.73
2018-11-10T03:41:15.258Z,53.37
2018-11-10T03:43:56.310Z,45.10
2018-11-10T03:46:27.181Z,43.37
2018-11-10T03:48:59.692Z,46.17
2018-11-10T03:51:30.189Z,43.97
2018-11-10T03:54:01.533Z,46.20
2018-11-10T03:56:37.024Z,45.87
2018-11-10T03:59:07.027Z,45.60
2018-11-10T04:01:37.789Z,46.20
2018-11-10T04:04:22.021Z,48.60
2018-11-10T04:06:58.524Z,42.23
2018-11-10T04:09:28.208Z,47.27
2018-11-10T04:11:57.773Z,42.97
2018-11-10T04:14:27.667Z,51.13
2018-11-10T04:17:00.669Z,44.53
2018-11-10T04:19:32.361Z,48.53
2018-11-10T04:22:02.658Z,45.80
2018-11-10T04:24:33.055Z,48.90
2018-11-10T04:27:05.575Z,47.40
2018-11-10T04:29:36.034Z,48.73
2018-11-10T04:32:14.499Z,46.63
2018-11-10T04:35:00.742Z,48.53
2018-11-10T04:37:30.453Z,46.63
2018-11-10T04:40:01.095Z,73.07
2018-11-10T04:47:30.619Z,49.77
2018-11-10T04:50:03.196Z,53.57
2018-11-10T04:52:36.762Z,44.93
2018-11-10T04:55:08.041Z,48.60
2018-11-10T04:57:39.564Z,52.17
2018-11-10T05:00:23.127Z,52.60
2018-11-10T05:02:55.918Z,47.93
2018-11-10T05:05:27.669Z,48.80
2018-11-10T05:07:58.075Z,47.97
2018-11-10T05:10:30.013Z,52.07
2018-11-10T05:13:04.196Z,48.07
2018-11-10T05:15:43.592Z,45.13
2018-11-10T05:18:17.805Z,50.20
2018-11-10T05:20:48.209Z,47.60
2018-11-10T05:23:20.347Z,46.33
2018-11-10T05:26:10.981Z,46.23
2018-11-10T05:28:43.999Z,46.17
2018-11-10T05:31:13.972Z,47.03
2018-11-10T05:33:46.386Z,50.50
2018-11-10T05:36:18.544Z,45.63
2018-11-10T05:38:48.862Z,41.93
2018-11-10T05:41:19.184Z,44.93
2018-11-10T05:45:03.257Z,46.23
2018-11-10T05:47:34.425Z,45.57
2018-11-10T05:50:07.999Z,41.13
2018-11-10T05:52:39.121Z,37.97
2018-11-10T06:19:52.563Z,39.67
2018-11-10T06:22:23.076Z,38.90
2018-11-10T06:24:56.144Z,36.33
2018-11-10T06:27:26.002Z,37.00
2018-11-10T06:33:00.430Z,34.60
2018-11-10T06:35:32.811Z,37.30
2018-11-10T06:38:04.455Z,34.13
2018-11-10T06:40:36.739Z,33.50
2018-11-10T06:43:06.513Z,32.57
2018-11-10T06:45:48.352Z,36.00
2018-11-10T06:48:24.131Z,33.93
2018-11-10T06:50:54.521Z,32.90
2018-11-10T06:53:26.262Z,32.33
2018-11-10T06:55:57.565Z,31.00
2018-11-10T06:59:03.356Z,36.20
2018-11-10T07:01:33.179Z,29.83
2018-11-10T07:04:05.441Z,48.67
2018-11-10T07:06:36.054Z,28.13
2018-11-10T07:09:08.753Z,28.00
2018-11-10T07:11:40.184Z,28.70
2018-11-10T07:14:10.486Z,30.87
2018-11-10T07:16:40.750Z,26.23
2018-11-10T07:19:12.989Z,28.30
2018-11-10T07:21:46.472Z,30.37
2018-11-10T07:24:21.939Z,25.67
2018-11-10T07:26:59.323Z,26.63
2018-11-10T07:29:33.042Z,26.10
2018-11-10T07:32:03.322Z,23.80
2018-11-10T07:34:33.317Z,24.83
2018-11-10T07:37:27.151Z,27.37
2018-11-10T07:40:04.831Z,27.70
2018-11-10T07:42:51.928Z,21.57
2018-11-10T07:45:37.119Z,26.20
2018-11-10T07:51:05.023Z,23.40
2018-11-10T07:53:43.375Z,21.57
2018-11-10T07:56:14.457Z,22.83
2018-11-10T07:58:45.727Z,21.77
2018-11-10T08:01:19.085Z,19.93
2018-11-10T08:03:55.387Z,23.40
2018-11-10T08:06:27.127Z,21.47
2018-11-10T08:09:01.496Z,21.40
2018-11-10T08:11:36.300Z,20.50
2018-11-10T08:14:11.509Z,22.83
2018-11-10T08:16:41.063Z,19.20
2018-11-10T08:19:10.786Z,22.03
2018-11-10T08:21:41.806Z,21.60
2018-11-10T08:24:12.397Z,19.87
2018-11-10T08:26:44.257Z,19.60
2018-11-10T08:29:15.322Z,21.53
2018-11-10T08:31:46.006Z,23.20
2018-11-10T08:34:23.423Z,19.20
2018-11-10T08:36:53.315Z,20.40
2018-11-10T08:39:23.837Z,23.80
2018-11-10T08:41:55.722Z,22.63
2018-11-10T08:44:58.100Z,20.03
2018-11-10T08:47:41.722Z,25.07
2018-11-10T08:50:15.202Z,25.10
2018-11-10T08:52:46.461Z,18.97
2018-11-10T08:55:17.113Z,21.57
2018-11-10T08:57:49.383Z,18.57
2018-11-10T09:00:19.414Z,23.50
2018-11-10T09:02:50.516Z,20.50
2018-11-10T09:05:32.677Z,19.00
2018-11-10T09:08:04.840Z,18.03
2018-11-10T09:10:40.954Z,19.70
2018-11-10T09:13:12.999Z,18.20
2018-11-10T09:15:43.674Z,19.83
2018-11-10T09:18:15.719Z,20.67
2018-11-10T09:20:47.674Z,20.37
2018-11-10T09:23:18.707Z,16.83
2018-11-10T09:25:48.419Z,19.00
2018-11-10T09:28:19.241Z,16.93
2018-11-10T09:30:53.921Z,18.50
2018-11-10T09:33:24.654Z,17.93
2018-11-10T09:35:56.904Z,19.67
2018-11-10T09:41:10.811Z,18.03
2018-11-10T09:43:43.077Z,21.93
2018-11-10T09:46:17.483Z,16.37
2018-11-10T09:48:57.785Z,14.00
2018-11-10T09:51:31.528Z,16.83
2018-11-10T09:54:04.838Z,16.37
2018-11-10T10:01:36.088Z,16.93
2018-11-10T10:04:08.998Z,23.50
2018-11-10T10:06:41.700Z,17.73
2018-11-10T10:09:13.084Z,15.90
2018-11-10T10:11:43.660Z,19.83
2018-11-10T10:14:20.320Z,19.57
2018-11-10T10:16:51.488Z,20.47
2018-11-10T10:19:30.094Z,22.83
2018-11-10T10:22:04.780Z,23.60
2018-11-10T10:24:39.790Z,19.17
2018-11-10T10:27:12.364Z,25.83
2018-11-10T10:29:48.914Z,21.53
2018-11-10T10:32:26.664Z,22.00
2018-11-10T10:34:57.915Z,23.07
2018-11-10T10:37:31.919Z,22.43
2018-11-10T10:40:12.764Z,20.00
2018-11-10T10:42:47.028Z,22.13
2018-11-10T10:45:24.093Z,23.80
2018-11-10T10:51:34.407Z,25.30
2018-11-10T10:54:26.441Z,21.53
2018-11-10T10:57:09.428Z,23.93
2018-11-10T10:59:43.500Z,23.27
2018-11-10T11:02:26.417Z,23.83
2018-11-10T11:05:12.332Z,23.03
2018-11-10T11:07:47.281Z,19.83
2018-11-10T11:10:28.939Z,21.33
2018-11-10T11:13:07.271Z,21.80
2018-11-10T11:15:41.118Z,24.27
2018-11-10T11:18:11.591Z,23.33
2018-11-10T11:20:51.334Z,24.33
2018-11-10T11:23:23.977Z,23.63
2018-11-10T11:29:08.152Z,23.07
2018-11-10T11:34:30.259Z,25.07
2018-11-10T11:37:05.660Z,39.17
2018-11-10T11:39:48.371Z,34.50
2018-11-10T11:42:30.601Z,37.37
2018-11-10T11:45:07.815Z,24.90
2018-11-10T11:47:40.635Z,23.03
2018-11-10T11:50:18.072Z,23.53
2018-11-10T11:52:58.729Z,22.50
2018-11-10T11:55:43.560Z,25.97
2018-11-10T11:58:26.202Z,27.73
2018-11-10T12:01:19.019Z,25.13
2018-11-10T12:03:54.710Z,23.57
2018-11-10T12:06:46.933Z,26.53
2018-11-10T12:09:32.921Z,25.43
2018-11-10T12:12:23.552Z,24.40
2018-11-10T12:15:07.955Z,24.03
2018-11-10T12:17:55.294Z,20.50
2018-11-10T12:20:35.735Z,18.43
2018-11-10T12:23:08.324Z,20.93
2018-11-10T12:25:42.256Z,22.10
2018-11-10T12:28:40.294Z,20.17
2018-11-10T12:31:18.018Z,21.37
2018-11-10T12:33:49.747Z,21.73
2018-11-10T12:36:32.424Z,18.20
2018-11-10T12:39:10.159Z,24.53
2018-11-10T12:41:51.066Z,20.43
2018-11-10T12:44:45.526Z,21.73
2018-11-10T12:49:57.951Z,21.87
2018-11-10T12:52:28.505Z,24.00
2018-11-10T12:55:01.641Z,24.07
2018-11-10T12:57:43.184Z,23.53
2018-11-10T13:00:35.258Z,24.13
2018-11-10T13:03:07.018Z,31.10
2018-11-10T13:05:41.340Z,30.13
2018-11-10T13:08:14.933Z,23.20
2018-11-10T13:10:54.366Z,24.80
2018-11-10T13:13:26.281Z,21.10
2018-11-10T13:16:00.201Z,25.00
2018-11-10T13:18:34.216Z,26.27
2018-11-10T13:21:14.437Z,23.27
2018-11-10T13:23:49.341Z,24.30
2018-11-10T13:26:23.427Z,23.33
2018-11-10T13:29:15.021Z,20.73
2018-11-10T13:31:48.671Z,22.67
2018-11-10T13:34:22.791Z,20.53
2018-11-10T13:36:53.878Z,21.03
2018-11-10T13:39:23.677Z,22.33
2018-11-10T13:41:56.676Z,19.13
2018-11-10T13:47:12.473Z,20.97
2018-11-10T13:49:44.777Z,20.47
2018-11-10T13:52:18.405Z,22.13
2018-11-10T13:54:49.880Z,19.47
2018-11-10T13:57:21.290Z,23.37
2018-11-10T14:00:49.441Z,19.03
2018-11-10T14:06:37.115Z,18.20
2018-11-10T14:09:11.523Z,18.23
2018-11-10T14:11:43.710Z,18.70
2018-11-10T14:14:24.680Z,18.93
2018-11-10T14:16:59.542Z,17.80
2018-11-10T14:19:59.570Z,16.37
2018-11-10T14:25:53.102Z,17.87
2018-11-10T14:28:37.058Z,16.27
2018-11-10T14:31:10.639Z,15.43
2018-11-10T14:36:58.530Z,16.80
2018-11-10T14:39:33.876Z,19.40
2018-11-10T14:42:15.021Z,18.77
2018-11-10T14:45:29.880Z,18.10
2018-11-10T14:48:12.408Z,17.87
2018-11-10T14:53:32.607Z,19.43
2018-11-10T14:56:07.536Z,17.37
2018-11-10T14:58:48.520Z,16.03
2018-11-10T15:01:23.760Z,19.60
2018-11-10T15:03:56.402Z,18.93
2018-11-10T15:06:26.362Z,17.67
2018-11-10T15:08:57.514Z,18.37
2018-11-10T15:11:33.137Z,15.97
2018-11-10T15:14:04.651Z,19.50
2018-11-10T15:16:38.249Z,19.10
2018-11-10T15:19:20.992Z,22.43
2018-11-10T15:21:52.324Z,20.63
2018-11-10T15:24:25.350Z,21.50
2018-11-10T15:26:57.709Z,21.23
2018-11-10T15:29:27.147Z,23.30
2018-11-10T15:31:56.690Z,17.67
2018-11-10T15:34:28.483Z,18.90
2018-11-10T15:37:01.547Z,19.20
2018-11-10T15:39:33.184Z,17.73
2018-11-10T15:42:03.115Z,22.60
2018-11-10T15:44:37.005Z,18.70
2018-11-10T15:47:07.914Z,17.00
2018-11-10T15:49:48.529Z,21.17
2018-11-10T15:52:24.192Z,19.70
2018-11-10T15:55:06.427Z,21.57
2018-11-10T15:57:39.053Z,19.87
2018-11-10T16:00:23.994Z,19.53
2018-11-10T16:03:11.892Z,23.07
2018-11-10T16:05:46.347Z,23.90
2018-11-10T16:08:18.264Z,20.33
2018-11-10T16:11:01.279Z,23.23
2018-11-10T16:13:32.137Z,20.63
2018-11-10T16:16:18.637Z,22.63
2018-11-10T16:18:59.558Z,23.07
2018-11-10T16:21:35.303Z,20.93
2018-11-10T16:24:11.765Z,25.93
2018-11-10T16:26:44.114Z,21.40
2018-11-10T16:29:15.222Z,23.63
2018-11-10T16:31:48.912Z,27.43
2018-11-10T16:34:30.110Z,24.77
2018-11-10T16:37:00.663Z,23.10
2018-11-10T16:39:35.674Z,24.70
2018-11-10T16:42:15.945Z,21.57
2018-11-10T16:44:49.821Z,21.53
2018-11-10T16:47:26.641Z,21.77
2018-11-10T16:50:04.012Z,22.23
2018-11-10T16:52:44.374Z,20.33
2018-11-10T16:55:22.362Z,23.00
2018-11-10T16:57:58.868Z,21.87
2018-11-10T17:00:30.762Z,20.07
2018-11-10T17:03:19.481Z,26.13
2018-11-10T17:06:02.308Z,22.37
2018-11-10T17:08:41.494Z,20.60
2018-11-10T17:11:16.172Z,19.73
2018-11-10T17:14:05.590Z,21.77
2018-11-10T17:16:49.580Z,20.33
2018-11-10T17:19:20.597Z,22.67
2018-11-10T17:21:56.940Z,23.30
2018-11-10T17:24:27.537Z,25.13
2018-11-10T17:26:59.271Z,24.87
2018-11-10T17:32:42.921Z,27.00
2018-11-10T17:35:21.044Z,25.97
2018-11-10T17:37:50.761Z,25.70
2018-11-10T17:40:21.220Z,25.97
2018-11-10T17:42:53.394Z,26.67
2018-11-10T17:45:23.356Z,25.60
2018-11-10T17:47:56.297Z,25.13
2018-11-10T17:50:26.754Z,24.70
2018-11-10T17:52:59.020Z,24.30
2018-11-10T17:55:32.660Z,23.97
2018-11-10T17:58:08.799Z,25.83
2018-11-10T18:00:45.876Z,24.43
2018-11-10T18:03:22.056Z,26.47
2018-11-10T18:05:59.749Z,23.43
2018-11-10T18:08:45.617Z,22.87
2018-11-10T18:16:28.656Z,23.73
2018-11-10T18:18:58.801Z,22.33
2018-11-10T18:21:42.236Z,26.70
2018-11-10T18:24:16.867Z,26.20
2018-11-10T18:26:49.627Z,23.10
2018-11-10T18:29:22.748Z,21.30
2018-11-10T18:31:58.233Z,23.83
2018-11-10T18:34:33.016Z,24.90
2018-11-10T18:37:07.216Z,23.63
2018-11-10T18:39:41.186Z,23.37
2018-11-10T18:42:15.372Z,21.37
2018-11-10T18:44:50.906Z,22.90
2018-11-10T18:47:25.002Z,23.00
2018-11-10T18:49:55.831Z,29.07
2018-11-10T18:52:32.005Z,32.10
2018-11-10T18:55:04.374Z,27.87
2018-11-10T18:57:52.254Z,22.73
2018-11-10T19:00:23.546Z,23.27
2018-11-10T19:02:54.177Z,24.03
2018-11-10T19:05:29.257Z,21.93
2018-11-10T19:08:09.067Z,22.40
2018-11-10T19:10:39.009Z,28.60
2018-11-10T19:13:12.050Z,29.07
2018-11-10T19:18:54.307Z,21.43
2018-11-10T19:24:55.883Z,23.03
2018-11-10T19:27:29.696Z,24.97
2018-11-10T19:30:32.919Z,31.53
2018-11-10T19:36:34.786Z,28.97
2018-11-10T19:39:54.161Z,28.17
2018-11-10T19:45:29.149Z,23.63
2018-11-10T19:48:17.870Z,25.03
2018-11-10T19:53:33.096Z,20.50
2018-11-10T19:56:29.766Z,22.87
2018-11-10T19:59:12.082Z,31.20
2018-11-10T20:01:57.340Z,31.00
2018-11-10T20:04:36.236Z,23.83
2018-11-10T20:07:22.724Z,23.50
2018-11-10T20:09:55.428Z,24.87
2018-11-10T20:12:45.072Z,24.07
2018-11-10T20:15:19.552Z,24.53
2018-11-10T20:18:02.671Z,25.93
2018-11-10T20:20:33.713Z,24.40
2018-11-10T20:23:04.805Z,23.20
2018-11-10T20:25:34.742Z,29.57
2018-11-10T20:28:06.564Z,25.53
2018-11-10T20:30:38.389Z,30.30
2018-11-10T20:33:12.747Z,28.40
2018-11-10T20:38:36.996Z,26.87
2018-11-10T20:41:27.579Z,29.80
2018-11-10T20:44:00.017Z,24.27
2018-11-10T20:46:33.369Z,25.03
2018-11-10T20:49:04.076Z,28.67
2018-11-10T20:51:34.887Z,25.80
2018-11-10T20:54:06.785Z,27.20
2018-11-10T20:56:37.714Z,24.10
2018-11-10T20:59:22.987Z,28.97
2018-11-10T21:01:54.814Z,27.53
2018-11-10T21:04:24.224Z,25.07
2018-11-10T21:06:55.033Z,29.00
2018-11-10T21:09:27.259Z,27.47
2018-11-10T21:11:58.459Z,28.53
2018-11-10T21:14:30.435Z,24.70
2018-11-10T21:17:01.767Z,25.67
2018-11-10T21:19:34.145Z,34.83
2018-11-10T21:22:05.551Z,29.33
2018-11-10T21:24:35.562Z,24.53
2018-11-10T21:27:09.802Z,26.87
2018-11-10T21:29:40.565Z,27.60
2018-11-10T21:32:11.115Z,23.60
2018-11-10T21:34:41.802Z,37.53
2018-11-10T21:37:11.872Z,23.60
2018-11-10T21:39:47.751Z,34.00
2018-11-10T21:42:18.628Z,33.20
2018-11-10T21:44:50.265Z,28.50
2018-11-10T21:47:19.950Z,26.10
2018-11-10T21:49:49.416Z,25.40
2018-11-10T21:52:20.606Z,24.80
2018-11-10T21:54:52.370Z,24.07
2018-11-10T21:57:24.098Z,29.00
2018-11-10T21:59:59.532Z,24.77
2018-11-10T22:02:29.084Z,23.50
2018-11-10T22:05:01.096Z,27.87
2018-11-10T22:07:30.581Z,26.30
2018-11-10T22:10:03.772Z,25.23
2018-11-10T22:12:41.673Z,25.87
2018-11-10T22:15:21.686Z,24.17
2018-11-10T22:17:52.916Z,25.53
2018-11-10T22:20:23.885Z,25.90
2018-11-10T22:22:53.576Z,24.23
2018-11-10T22:25:25.907Z,24.13
2018-11-10T22:27:57.583Z,25.17
2018-11-10T22:30:28.276Z,24.83
2018-11-10T22:32:58.912Z,24.60
2018-11-10T22:35:34.209Z,27.50
2018-11-10T22:38:04.057Z,24.97
2018-11-10T22:40:36.502Z,24.63
2018-11-10T22:43:06.450Z,25.57
2018-11-10T22:45:38.890Z,23.50
2018-11-10T22:48:25.016Z,25.97
2018-11-10T22:50:54.605Z,28.50
2018-11-10T22:53:40.346Z,24.30
2018-11-10T22:56:10.823Z,28.53
2018-11-10T22:58:41.665Z,24.63
2018-11-10T23:03:59.107Z,27.30
2018-11-10T23:06:33.447Z,28.93
2018-11-10T23:09:07.114Z,30.23
2018-11-10T23:11:37.188Z,23.80
2018-11-10T23:14:08.093Z,24.53
2018-11-10T23:16:38.536Z,26.07
2018-11-10T23:19:10.927Z,26.40
2018-11-10T23:21:40.514Z,26.53
2018-11-10T23:24:10.070Z,26.57
2018-11-10T23:26:44.762Z,27.57
2018-11-10T23:29:22.570Z,28.07
2018-11-10T23:34:34.253Z,40.07
2018-11-10T23:37:07.338Z,28.53
2018-11-10T23:39:37.539Z,27.50
2018-11-10T23:42:12.700Z,28.33
2018-11-10T23:44:43.233Z,30.37
2018-11-10T23:47:14.495Z,26.57
2018-11-10T23:49:46.007Z,30.30
2018-11-10T23:52:16.081Z,28.97
2018-11-10T23:54:46.105Z,25.67
2018-11-10T23:57:21.195Z,28.20
2018-11-10T23:59:52.008Z,41.03
